Date,TemperatureHighF,TemperatureAvgF,TemperatureLowF,DewpointHighF,DewpointAvgF,DewpointLowF,HumidityHigh,HumidityAvg,HumidityLow,PressureMaxIn,PressureMinIn,WindSpeedMaxMPH,WindSpeedAvgMPH,GustSpeedMaxMPH,PrecipitationSumIn
2013-3-1,33.0,24.6,12.0,20.0,15.0,10.0,93,69,41,0.00,40.00,7,4,15,0.00
2013-3-2,30.0,17.8,7.0,10.0,6.4,2.0,93,64,36,0.00,40.00,8,4,14,0.00
2013-3-3,34.0,16.7,-2.0,9.0,2.3,-7.0,90,60,19,0.00,40.00,4,2,12,0.00
2013-3-4,31.0,18.9,3.0,21.0,11.1,0.0,90,73,54,0.00,40.00,9,5,17,0.00
2013-3-5,29.0,26.1,25.0,28.0,22.6,17.0,100,86,71,0.00,40.00,8,5,15,0.13
2013-3-6,34.0,26.2,14.0,24.0,21.0,13.0,97,81,66,0.00,40.00,10,6,15,0.02
2013-3-7,40.0,21.2,2.0,18.0,11.8,-1.0,97,71,38,0.00,40.00,6,2,12,0.01
2013-3-8,41.0,24.4,6.0,26.0,17.4,3.0,100,77,49,0.00,40.00,9,3,19,0.00
2013-3-9,40.0,33.5,27.0,35.0,30.3,25.0,100,88,72,0.00,40.00,7,4,15,0.43
2013-3-10,38.0,35.5,32.0,38.0,35.5,32.0,100,100,100,0.00,40.00,12,5,28,0.70
2013-3-11,35.0,32.2,28.0,35.0,30.7,22.0,100,94,79,0.00,40.00,11,6,21,0.52
2013-3-12,30.0,26.9,22.0,26.0,20.4,11.0,100,77,60,0.00,40.00,11,8,24,0.01
2013-3-13,33.0,23.8,16.0,15.0,8.5,1.0,82,55,27,0.00,40.00,14,8,22,0.01
2013-3-14,36.0,23.4,8.0,26.0,15.8,6.0,97,75,40,0.00,40.00,6,3,12,0.00
2013-3-15,37.0,29.8,25.0,36.0,29.2,25.0,100,98,91,0.00,40.00,10,4,18,0.04
2013-3-16,32.0,23.0,18.0,26.0,16.4,11.0,100,78,53,0.00,40.00,10,6,18,0.05
2013-3-17,28.0,19.6,10.0,12.0,6.8,2.0,78,58,39,0.00,40.00,9,6,16,0.01
2013-3-18,31.0,23.2,15.0,31.0,21.1,10.0,100,91,75,0.00,40.00,15,5,27,0.21
2013-3-19,29.0,19.9,13.0,12.0,6.3,1.0,84,58,34,0.00,40.00,16,13,30,0.02
2013-3-20,20.0,13.8,6.0,4.0,-2.7,-8.0,58,47,38,0.00,40.00,14,10,22,0.00
2013-3-21,31.0,17.2,7.0,9.0,3.9,-2.0,86,57,36,0.00,40.00,10,6,18,0.00
2013-3-22,38.0,22.3,4.0,15.0,9.4,1.0,91,62,31,0.00,40.00,7,3,17,0.00
2013-3-23,42.0,25.6,10.0,24.0,15.3,8.0,94,70,34,0.00,40.00,7,2,14,0.00
2013-3-24,34.0,30.6,29.0,24.0,21.4,18.0,82,69,57,0.00,40.00,9,6,19,0.00
2013-3-25,37.0,30.6,23.0,22.0,19.5,15.0,82,64,51,0.00,40.00,10,7,20,0.00
2013-3-26,42.0,33.6,28.0,25.0,20.5,19.0,69,59,44,0.00,40.00,10,6,17,0.00
2013-3-27,45.0,37.3,31.0,22.0,18.8,15.0,67,49,31,0.00,40.00,9,5,19,0.00
2013-3-28,48.0,39.7,25.0,19.0,16.1,15.0,77,41,27,0.00,40.00,7,4,15,0.00
2013-3-29,54.0,35.1,17.0,24.0,18.1,13.0,87,57,23,0.00,40.00,5,2,10,0.00
2013-3-30,51.0,37.8,25.0,40.0,28.0,-99.9,93,74,47,0.00,40.00,8,3,18,0.11
2013-3-31,44.0,37.4,31.0,37.0,28.0,13.0,93,71,38,0.00,40.00,12,8,27,0.11